sensor_id;sensor_type;location;lat;lon;timestamp;P1;durP1;ratioP1;P2;durP2;ratioP2
32152;SDS011;18656;50.580;11.392;2022-08-26T00:01:49;24.25;;;14.77;;
32152;SDS011;18656;50.580;11.392;2022-08-26T00:04:17;26.88;;;15.25;;
32152;SDS011;18656;50.580;11.392;2022-08-26T00:06:44;22.85;;;15.23;;
32152;SDS011;18656;50.580;11.392;2022-08-26T00:09:13;19.92;;;14.85;;
32152;SDS011;18656;50.580;11.392;2022-08-26T00:11:42;24.95;;;15.48;;
32152;SDS011;18656;50.580;11.392;2022-08-26T00:14:10;24.42;;;15.15;;
32152;SDS011;18656;50.580;11.392;2022-08-26T00:16:39;26.77;;;16.48;;
32152;SDS011;18656;50.580;11.392;2022-08-26T00:19:13;27.23;;;16.13;;
32152;SDS011;18656;50.580;11.392;2022-08-26T00:21:41;23.77;;;16.48;;
32152;SDS011;18656;50.580;11.392;2022-08-26T00:24:08;29.08;;;17.63;;
32152;SDS011;18656;50.580;11.392;2022-08-26T00:26:35;26.20;;;16.35;;
32152;SDS011;18656;50.580;11.392;2022-08-26T00:29:06;21.33;;;15.60;;
32152;SDS011;18656;50.580;11.392;2022-08-26T00:31:34;26.52;;;16.63;;
32152;SDS011;18656;50.580;11.392;2022-08-26T00:34:02;28.60;;;16.15;;
32152;SDS011;18656;50.580;11.392;2022-08-26T00:36:30;25.10;;;15.45;;
32152;SDS011;18656;50.580;11.392;2022-08-26T00:38:57;26.35;;;16.65;;
32152;SDS011;18656;50.580;11.392;2022-08-26T00:41:24;22.83;;;15.18;;
32152;SDS011;18656;50.580;11.392;2022-08-26T00:43:52;23.17;;;15.75;;
32152;SDS011;18656;50.580;11.392;2022-08-26T00:46:20;27.40;;;16.73;;
32152;SDS011;18656;50.580;11.392;2022-08-26T00:48:50;25.83;;;15.65;;
32152;SDS011;18656;50.580;11.392;2022-08-26T00:51:19;23.65;;;15.30;;
32152;SDS011;18656;50.580;11.392;2022-08-26T00:53:49;29.50;;;16.77;;
32152;SDS011;18656;50.580;11.392;2022-08-26T00:56:26;26.77;;;16.95;;
32152;SDS011;18656;50.580;11.392;2022-08-26T00:58:55;24.40;;;16.25;;
32152;SDS011;18656;50.580;11.392;2022-08-26T01:01:23;19.70;;;16.00;;
32152;SDS011;18656;50.580;11.392;2022-08-26T01:03:55;25.38;;;17.20;;
32152;SDS011;18656;50.580;11.392;2022-08-26T01:06:23;25.65;;;16.27;;
32152;SDS011;18656;50.580;11.392;2022-08-26T01:08:50;29.08;;;17.58;;
32152;SDS011;18656;50.580;11.392;2022-08-26T01:11:18;27.85;;;16.88;;
32152;SDS011;18656;50.580;11.392;2022-08-26T01:13:46;21.90;;;16.73;;
32152;SDS011;18656;50.580;11.392;2022-08-26T01:16:14;26.63;;;17.48;;
32152;SDS011;18656;50.580;11.392;2022-08-26T01:18:42;28.13;;;17.27;;
32152;SDS011;18656;50.580;11.392;2022-08-26T01:21:15;24.95;;;17.13;;
32152;SDS011;18656;50.580;11.392;2022-08-26T01:23:45;26.05;;;17.48;;
32152;SDS011;18656;50.580;11.392;2022-08-26T01:26:30;37.72;;;20.08;;
32152;SDS011;18656;50.580;11.392;2022-08-26T01:28:59;30.67;;;18.63;;
32152;SDS011;18656;50.580;11.392;2022-08-26T01:31:31;28.48;;;18.33;;
32152;SDS011;18656;50.580;11.392;2022-08-26T01:34:00;27.55;;;18.65;;
32152;SDS011;18656;50.580;11.392;2022-08-26T01:36:30;29.35;;;17.42;;
32152;SDS011;18656;50.580;11.392;2022-08-26T01:38:57;19.77;;;17.13;;
32152;SDS011;18656;50.580;11.392;2022-08-26T01:41:24;28.05;;;16.63;;
32152;SDS011;18656;50.580;11.392;2022-08-26T01:43:55;22.83;;;17.60;;
32152;SDS011;18656;50.580;11.392;2022-08-26T01:46:23;38.47;;;18.50;;
32152;SDS011;18656;50.580;11.392;2022-08-26T01:48:52;26.60;;;16.90;;
32152;SDS011;18656;50.580;11.392;2022-08-26T01:51:21;23.00;;;17.10;;
32152;SDS011;18656;50.580;11.392;2022-08-26T01:53:49;27.80;;;16.60;;
32152;SDS011;18656;50.580;11.392;2022-08-26T01:56:17;30.15;;;17.88;;
32152;SDS011;18656;50.580;11.392;2022-08-26T01:58:47;27.90;;;18.25;;
32152;SDS011;18656;50.580;11.392;2022-08-26T02:01:17;31.20;;;18.77;;
32152;SDS011;18656;50.580;11.392;2022-08-26T02:03:49;31.50;;;19.25;;
32152;SDS011;18656;50.580;11.392;2022-08-26T02:06:17;23.05;;;17.70;;
32152;SDS011;18656;50.580;11.392;2022-08-26T02:08:48;30.90;;;17.75;;
32152;SDS011;18656;50.580;11.392;2022-08-26T02:11:16;27.60;;;17.67;;
32152;SDS011;18656;50.580;11.392;2022-08-26T02:13:44;27.13;;;18.27;;
32152;SDS011;18656;50.580;11.392;2022-08-26T02:16:14;34.53;;;18.05;;
32152;SDS011;18656;50.580;11.392;2022-08-26T02:18:42;26.00;;;17.17;;
32152;SDS011;18656;50.580;11.392;2022-08-26T02:21:12;27.83;;;18.63;;
32152;SDS011;18656;50.580;11.392;2022-08-26T02:23:39;24.60;;;17.30;;
32152;SDS011;18656;50.580;11.392;2022-08-26T02:26:08;24.23;;;17.63;;
32152;SDS011;18656;50.580;11.392;2022-08-26T02:28:38;34.17;;;19.10;;
32152;SDS011;18656;50.580;11.392;2022-08-26T02:31:06;26.45;;;18.67;;
32152;SDS011;18656;50.580;11.392;2022-08-26T02:33:35;27.50;;;17.45;;
32152;SDS011;18656;50.580;11.392;2022-08-26T02:36:08;26.67;;;17.70;;
32152;SDS011;18656;50.580;11.392;2022-08-26T02:38:37;28.50;;;18.60;;
32152;SDS011;18656;50.580;11.392;2022-08-26T02:41:04;25.95;;;18.27;;
32152;SDS011;18656;50.580;11.392;2022-08-26T02:43:33;27.85;;;17.70;;
32152;SDS011;18656;50.580;11.392;2022-08-26T02:46:00;29.40;;;17.60;;
32152;SDS011;18656;50.580;11.392;2022-08-26T02:48:28;29.00;;;18.27;;
32152;SDS011;18656;50.580;11.392;2022-08-26T02:50:57;23.85;;;17.20;;
32152;SDS011;18656;50.580;11.392;2022-08-26T02:53:24;26.58;;;17.58;;
32152;SDS011;18656;50.580;11.392;2022-08-26T02:55:52;28.40;;;18.45;;
32152;SDS011;18656;50.580;11.392;2022-08-26T02:58:20;30.08;;;18.38;;
32152;SDS011;18656;50.580;11.392;2022-08-26T03:00:47;30.35;;;18.60;;
32152;SDS011;18656;50.580;11.392;2022-08-26T03:03:18;26.35;;;16.73;;
32152;SDS011;18656;50.580;11.392;2022-08-26T03:05:48;24.85;;;17.08;;
32152;SDS011;18656;50.580;11.392;2022-08-26T03:08:15;27.20;;;18.00;;
32152;SDS011;18656;50.580;11.392;2022-08-26T03:10:43;34.88;;;17.85;;
32152;SDS011;18656;50.580;11.392;2022-08-26T03:13:13;20.38;;;16.92;;
32152;SDS011;18656;50.580;11.392;2022-08-26T03:15:40;28.40;;;19.10;;
32152;SDS011;18656;50.580;11.392;2022-08-26T03:18:07;26.80;;;18.17;;
32152;SDS011;18656;50.580;11.392;2022-08-26T03:20:36;27.58;;;19.15;;
32152;SDS011;18656;50.580;11.392;2022-08-26T03:23:03;36.22;;;22.05;;
32152;SDS011;18656;50.580;11.392;2022-08-26T03:25:32;33.83;;;21.58;;
32152;SDS011;18656;50.580;11.392;2022-08-26T03:28:00;29.73;;;21.02;;
32152;SDS011;18656;50.580;11.392;2022-08-26T03:30:27;30.23;;;20.48;;
32152;SDS011;18656;50.580;11.392;2022-08-26T03:33:11;30.38;;;20.00;;
32152;SDS011;18656;50.580;11.392;2022-08-26T03:35:39;26.70;;;18.10;;
32152;SDS011;18656;50.580;11.392;2022-08-26T03:38:08;29.67;;;19.58;;
32152;SDS011;18656;50.580;11.392;2022-08-26T03:40:35;29.08;;;19.08;;
32152;SDS011;18656;50.580;11.392;2022-08-26T03:43:03;24.30;;;17.35;;
32152;SDS011;18656;50.580;11.392;2022-08-26T03:45:35;24.35;;;17.17;;
32152;SDS011;18656;50.580;11.392;2022-08-26T03:48:02;29.75;;;18.00;;
32152;SDS011;18656;50.580;11.392;2022-08-26T03:50:29;25.88;;;18.08;;
32152;SDS011;18656;50.580;11.392;2022-08-26T03:52:59;23.80;;;17.35;;
32152;SDS011;18656;50.580;11.392;2022-08-26T03:55:28;28.52;;;18.50;;
32152;SDS011;18656;50.580;11.392;2022-08-26T03:57:57;33.85;;;18.40;;
32152;SDS011;18656;50.580;11.392;2022-08-26T04:00:25;29.92;;;19.95;;
32152;SDS011;18656;50.580;11.392;2022-08-26T04:02:52;28.30;;;17.05;;
32152;SDS011;18656;50.580;11.392;2022-08-26T04:05:19;28.15;;;18.95;;
32152;SDS011;18656;50.580;11.392;2022-08-26T04:07:48;30.33;;;19.85;;
32152;SDS011;18656;50.580;11.392;2022-08-26T04:10:16;25.38;;;18.20;;
32152;SDS011;18656;50.580;11.392;2022-08-26T04:12:45;28.70;;;18.33;;
32152;SDS011;18656;50.580;11.392;2022-08-26T04:15:13;27.67;;;17.27;;
32152;SDS011;18656;50.580;11.392;2022-08-26T04:17:41;28.20;;;16.50;;
32152;SDS011;18656;50.580;11.392;2022-08-26T04:20:08;25.23;;;17.05;;
32152;SDS011;18656;50.580;11.392;2022-08-26T04:22:41;24.33;;;16.40;;
32152;SDS011;18656;50.580;11.392;2022-08-26T04:25:08;24.52;;;16.25;;
32152;SDS011;18656;50.580;11.392;2022-08-26T04:27:36;19.50;;;16.38;;
32152;SDS011;18656;50.580;11.392;2022-08-26T04:30:06;30.38;;;17.20;;
32152;SDS011;18656;50.580;11.392;2022-08-26T04:32:34;32.40;;;18.73;;
32152;SDS011;18656;50.580;11.392;2022-08-26T04:35:02;30.08;;;16.70;;
32152;SDS011;18656;50.580;11.392;2022-08-26T04:37:31;29.40;;;17.35;;
32152;SDS011;18656;50.580;11.392;2022-08-26T04:39:58;24.90;;;16.23;;
32152;SDS011;18656;50.580;11.392;2022-08-26T04:42:25;25.15;;;17.77;;
32152;SDS011;18656;50.580;11.392;2022-08-26T04:44:54;29.60;;;16.83;;
32152;SDS011;18656;50.580;11.392;2022-08-26T04:47:21;27.92;;;17.52;;
32152;SDS011;18656;50.580;11.392;2022-08-26T04:49:56;27.63;;;18.02;;
32152;SDS011;18656;50.580;11.392;2022-08-26T04:52:23;28.30;;;16.77;;
32152;SDS011;18656;50.580;11.392;2022-08-26T04:54:53;32.53;;;20.02;;
32152;SDS011;18656;50.580;11.392;2022-08-26T04:57:20;28.90;;;22.90;;
32152;SDS011;18656;50.580;11.392;2022-08-26T04:59:48;40.15;;;31.20;;
32152;SDS011;18656;50.580;11.392;2022-08-26T05:02:15;39.45;;;27.17;;
32152;SDS011;18656;50.580;11.392;2022-08-26T05:04:43;27.58;;;18.50;;
32152;SDS011;18656;50.580;11.392;2022-08-26T05:07:10;33.10;;;19.25;;
32152;SDS011;18656;50.580;11.392;2022-08-26T05:09:38;26.88;;;16.10;;
32152;SDS011;18656;50.580;11.392;2022-08-26T05:12:06;22.08;;;14.90;;
32152;SDS011;18656;50.580;11.392;2022-08-26T05:14:34;25.73;;;14.40;;
32152;SDS011;18656;50.580;11.392;2022-08-26T05:17:01;23.33;;;16.38;;
32152;SDS011;18656;50.580;11.392;2022-08-26T05:19:29;20.55;;;13.35;;
32152;SDS011;18656;50.580;11.392;2022-08-26T05:21:57;20.45;;;11.50;;
32152;SDS011;18656;50.580;11.392;2022-08-26T05:24:25;21.08;;;11.20;;
32152;SDS011;18656;50.580;11.392;2022-08-26T05:26:52;20.05;;;10.93;;
32152;SDS011;18656;50.580;11.392;2022-08-26T05:29:21;22.13;;;11.00;;
32152;SDS011;18656;50.580;11.392;2022-08-26T05:31:49;21.20;;;10.15;;
32152;SDS011;18656;50.580;11.392;2022-08-26T05:34:16;23.85;;;10.07;;
32152;SDS011;18656;50.580;11.392;2022-08-26T05:36:45;20.75;;;9.65;;
32152;SDS011;18656;50.580;11.392;2022-08-26T05:39:12;20.33;;;9.63;;
32152;SDS011;18656;50.580;11.392;2022-08-26T05:41:40;21.90;;;9.68;;
32152;SDS011;18656;50.580;11.392;2022-08-26T05:44:11;26.23;;;10.52;;
32152;SDS011;18656;50.580;11.392;2022-08-26T05:46:39;23.70;;;10.90;;
32152;SDS011;18656;50.580;11.392;2022-08-26T05:49:09;21.23;;;9.80;;
32152;SDS011;18656;50.580;11.392;2022-08-26T05:51:38;25.35;;;9.98;;
32152;SDS011;18656;50.580;11.392;2022-08-26T05:54:05;20.73;;;9.60;;
32152;SDS011;18656;50.580;11.392;2022-08-26T05:56:35;17.35;;;8.50;;
32152;SDS011;18656;50.580;11.392;2022-08-26T05:59:03;19.55;;;8.30;;
32152;SDS011;18656;50.580;11.392;2022-08-26T06:01:30;26.40;;;9.20;;
32152;SDS011;18656;50.580;11.392;2022-08-26T06:04:01;18.98;;;9.02;;
32152;SDS011;18656;50.580;11.392;2022-08-26T06:06:29;22.83;;;9.32;;
32152;SDS011;18656;50.580;11.392;2022-08-26T06:08:57;27.60;;;9.35;;
32152;SDS011;18656;50.580;11.392;2022-08-26T06:11:25;29.20;;;9.85;;
32152;SDS011;18656;50.580;11.392;2022-08-26T06:13:53;31.33;;;10.57;;
32152;SDS011;18656;50.580;11.392;2022-08-26T06:16:25;33.58;;;10.52;;
32152;SDS011;18656;50.580;11.392;2022-08-26T06:18:52;34.58;;;10.50;;
32152;SDS011;18656;50.580;11.392;2022-08-26T06:23:51;30.40;;;9.77;;
32152;SDS011;18656;50.580;11.392;2022-08-26T06:26:37;30.40;;;11.55;;
32152;SDS011;18656;50.580;11.392;2022-08-26T06:29:08;43.33;;;11.25;;
32152;SDS011;18656;50.580;11.392;2022-08-26T06:31:35;34.25;;;11.30;;
32152;SDS011;18656;50.580;11.392;2022-08-26T06:34:05;26.48;;;10.57;;
32152;SDS011;18656;50.580;11.392;2022-08-26T06:36:36;39.08;;;11.65;;
32152;SDS011;18656;50.580;11.392;2022-08-26T06:39:05;28.15;;;11.80;;
32152;SDS011;18656;50.580;11.392;2022-08-26T06:41:34;30.25;;;10.77;;
32152;SDS011;18656;50.580;11.392;2022-08-26T06:44:08;35.88;;;11.68;;
32152;SDS011;18656;50.580;11.392;2022-08-26T06:46:35;39.65;;;11.80;;
32152;SDS011;18656;50.580;11.392;2022-08-26T06:49:02;30.88;;;11.25;;
32152;SDS011;18656;50.580;11.392;2022-08-26T06:51:32;25.65;;;10.57;;
32152;SDS011;18656;50.580;11.392;2022-08-26T06:54:00;22.73;;;10.32;;
32152;SDS011;18656;50.580;11.392;2022-08-26T06:56:30;31.23;;;11.82;;
32152;SDS011;18656;50.580;11.392;2022-08-26T06:58:58;25.30;;;11.13;;
32152;SDS011;18656;50.580;11.392;2022-08-26T07:01:26;35.83;;;12.98;;
32152;SDS011;18656;50.580;11.392;2022-08-26T07:03:56;30.33;;;11.07;;
32152;SDS011;18656;50.580;11.392;2022-08-26T07:06:24;22.13;;;10.13;;
32152;SDS011;18656;50.580;11.392;2022-08-26T07:08:52;28.08;;;10.65;;
32152;SDS011;18656;50.580;11.392;2022-08-26T07:11:19;25.65;;;10.35;;
32152;SDS011;18656;50.580;11.392;2022-08-26T07:13:49;28.15;;;11.90;;
32152;SDS011;18656;50.580;11.392;2022-08-26T07:16:17;26.35;;;10.80;;
32152;SDS011;18656;50.580;11.392;2022-08-26T07:18:44;33.55;;;10.32;;
32152;SDS011;18656;50.580;11.392;2022-08-26T07:21:12;24.30;;;10.18;;
32152;SDS011;18656;50.580;11.392;2022-08-26T07:23:40;23.58;;;10.18;;
32152;SDS011;18656;50.580;11.392;2022-08-26T07:26:10;19.65;;;9.75;;
32152;SDS011;18656;50.580;11.392;2022-08-26T07:28:37;29.67;;;10.02;;
32152;SDS011;18656;50.580;11.392;2022-08-26T07:31:05;20.30;;;8.73;;
32152;SDS011;18656;50.580;11.392;2022-08-26T07:33:35;31.35;;;10.48;;
32152;SDS011;18656;50.580;11.392;2022-08-26T07:36:04;27.80;;;10.25;;
32152;SDS011;18656;50.580;11.392;2022-08-26T07:38:32;31.73;;;11.48;;
32152;SDS011;18656;50.580;11.392;2022-08-26T07:41:02;29.65;;;10.85;;
32152;SDS011;18656;50.580;11.392;2022-08-26T07:43:29;27.02;;;11.27;;
32152;SDS011;18656;50.580;11.392;2022-08-26T07:45:56;28.58;;;11.38;;
32152;SDS011;18656;50.580;11.392;2022-08-26T07:48:24;31.10;;;10.38;;
32152;SDS011;18656;50.580;11.392;2022-08-26T07:50:51;36.42;;;11.18;;
32152;SDS011;18656;50.580;11.392;2022-08-26T07:53:19;33.35;;;10.63;;
32152;SDS011;18656;50.580;11.392;2022-08-26T07:55:49;35.97;;;12.52;;
32152;SDS011;18656;50.580;11.392;2022-08-26T07:58:17;23.00;;;10.88;;
32152;SDS011;18656;50.580;11.392;2022-08-26T08:00:44;26.73;;;9.68;;
32152;SDS011;18656;50.580;11.392;2022-08-26T08:03:13;26.10;;;10.25;;
32152;SDS011;18656;50.580;11.392;2022-08-26T08:05:40;27.60;;;10.63;;
32152;SDS011;18656;50.580;11.392;2022-08-26T08:08:11;29.95;;;10.63;;
32152;SDS011;18656;50.580;11.392;2022-08-26T08:10:53;23.75;;;10.15;;
32152;SDS011;18656;50.580;11.392;2022-08-26T08:13:20;29.15;;;9.88;;
32152;SDS011;18656;50.580;11.392;2022-08-26T08:15:48;30.63;;;9.75;;
32152;SDS011;18656;50.580;11.392;2022-08-26T08:18:16;25.42;;;8.98;;
32152;SDS011;18656;50.580;11.392;2022-08-26T08:20:45;21.25;;;8.90;;
32152;SDS011;18656;50.580;11.392;2022-08-26T08:23:30;23.55;;;8.52;;
32152;SDS011;18656;50.580;11.392;2022-08-26T08:26:02;28.13;;;10.82;;
32152;SDS011;18656;50.580;11.392;2022-08-26T08:28:29;22.80;;;9.18;;
32152;SDS011;18656;50.580;11.392;2022-08-26T08:30:57;23.77;;;8.38;;
32152;SDS011;18656;50.580;11.392;2022-08-26T08:33:24;22.35;;;8.15;;
32152;SDS011;18656;50.580;11.392;2022-08-26T08:35:54;23.85;;;7.72;;
32152;SDS011;18656;50.580;11.392;2022-08-26T08:38:22;21.20;;;7.93;;
32152;SDS011;18656;50.580;11.392;2022-08-26T08:40:49;27.92;;;7.10;;
32152;SDS011;18656;50.580;11.392;2022-08-26T08:45:56;26.20;;;7.35;;
32152;SDS011;18656;50.580;11.392;2022-08-26T08:48:30;20.20;;;6.57;;
32152;SDS011;18656;50.580;11.392;2022-08-26T08:53:32;25.08;;;6.32;;
32152;SDS011;18656;50.580;11.392;2022-08-26T08:56:03;23.00;;;6.22;;
32152;SDS011;18656;50.580;11.392;2022-08-26T08:59:34;20.08;;;6.40;;
32152;SDS011;18656;50.580;11.392;2022-08-26T09:04:31;29.80;;;6.75;;
32152;SDS011;18656;50.580;11.392;2022-08-26T09:07:01;20.73;;;5.95;;
32152;SDS011;18656;50.580;11.392;2022-08-26T09:09:39;22.95;;;6.13;;
32152;SDS011;18656;50.580;11.392;2022-08-26T09:12:08;22.77;;;6.10;;
32152;SDS011;18656;50.580;11.392;2022-08-26T09:14:37;19.10;;;6.20;;
32152;SDS011;18656;50.580;11.392;2022-08-26T09:19:40;20.67;;;6.70;;
32152;SDS011;18656;50.580;11.392;2022-08-26T09:22:07;19.55;;;5.47;;
32152;SDS011;18656;50.580;11.392;2022-08-26T09:24:38;19.88;;;5.97;;
32152;SDS011;18656;50.580;11.392;2022-08-26T09:30:05;16.70;;;5.72;;
32152;SDS011;18656;50.580;11.392;2022-08-26T09:32:36;21.90;;;5.85;;
32152;SDS011;18656;50.580;11.392;2022-08-26T09:35:05;21.70;;;6.22;;
32152;SDS011;18656;50.580;11.392;2022-08-26T09:43:04;20.25;;;6.43;;
32152;SDS011;18656;50.580;11.392;2022-08-26T09:45:32;23.55;;;6.55;;
32152;SDS011;18656;50.580;11.392;2022-08-26T09:47:59;23.88;;;6.65;;
32152;SDS011;18656;50.580;11.392;2022-08-26T09:53:05;20.15;;;5.97;;
32152;SDS011;18656;50.580;11.392;2022-08-26T09:55:38;21.08;;;5.72;;
32152;SDS011;18656;50.580;11.392;2022-08-26T09:58:07;20.88;;;6.00;;
32152;SDS011;18656;50.580;11.392;2022-08-26T10:00:39;18.17;;;6.28;;
32152;SDS011;18656;50.580;11.392;2022-08-26T10:03:11;26.90;;;6.90;;
32152;SDS011;18656;50.580;11.392;2022-08-26T10:06:01;26.02;;;5.95;;
32152;SDS011;18656;50.580;11.392;2022-08-26T10:08:33;18.02;;;5.78;;
32152;SDS011;18656;50.580;11.392;2022-08-26T10:11:02;15.95;;;5.63;;
32152;SDS011;18656;50.580;11.392;2022-08-26T10:13:33;23.58;;;6.63;;
32152;SDS011;18656;50.580;11.392;2022-08-26T10:16:07;15.63;;;5.68;;
32152;SDS011;18656;50.580;11.392;2022-08-26T10:18:58;20.80;;;5.72;;
32152;SDS011;18656;50.580;11.392;2022-08-26T10:21:27;19.20;;;5.75;;
32152;SDS011;18656;50.580;11.392;2022-08-26T10:23:55;23.15;;;6.18;;
32152;SDS011;18656;50.580;11.392;2022-08-26T10:26:27;17.45;;;6.55;;
32152;SDS011;18656;50.580;11.392;2022-08-26T10:29:01;18.58;;;6.22;;
32152;SDS011;18656;50.580;11.392;2022-08-26T10:31:33;20.02;;;6.22;;
32152;SDS011;18656;50.580;11.392;2022-08-26T10:34:06;18.65;;;6.22;;
32152;SDS011;18656;50.580;11.392;2022-08-26T10:36:35;29.38;;;7.43;;
32152;SDS011;18656;50.580;11.392;2022-08-26T10:39:56;25.42;;;6.70;;
32152;SDS011;18656;50.580;11.392;2022-08-26T10:42:32;25.15;;;6.65;;
32152;SDS011;18656;50.580;11.392;2022-08-26T10:45:08;21.65;;;6.32;;
32152;SDS011;18656;50.580;11.392;2022-08-26T10:47:50;20.70;;;6.85;;
32152;SDS011;18656;50.580;11.392;2022-08-26T10:50:21;20.27;;;5.93;;
32152;SDS011;18656;50.580;11.392;2022-08-26T10:53:07;27.70;;;6.82;;
32152;SDS011;18656;50.580;11.392;2022-08-26T10:55:41;22.42;;;6.57;;
32152;SDS011;18656;50.580;11.392;2022-08-26T11:01:13;18.83;;;6.40;;
32152;SDS011;18656;50.580;11.392;2022-08-26T11:06:34;26.83;;;6.40;;
32152;SDS011;18656;50.580;11.392;2022-08-26T11:09:03;22.02;;;6.50;;
32152;SDS011;18656;50.580;11.392;2022-08-26T11:16:55;38.07;;;7.97;;
32152;SDS011;18656;50.580;11.392;2022-08-26T11:22:25;19.23;;;6.35;;
32152;SDS011;18656;50.580;11.392;2022-08-26T11:29:55;21.83;;;6.65;;
32152;SDS011;18656;50.580;11.392;2022-08-26T11:32:25;18.93;;;6.63;;
32152;SDS011;18656;50.580;11.392;2022-08-26T11:34:57;20.88;;;6.20;;
32152;SDS011;18656;50.580;11.392;2022-08-26T11:37:28;32.20;;;6.95;;
32152;SDS011;18656;50.580;11.392;2022-08-26T11:39:57;25.85;;;6.88;;
32152;SDS011;18656;50.580;11.392;2022-08-26T11:42:30;20.52;;;6.90;;
32152;SDS011;18656;50.580;11.392;2022-08-26T11:44:59;22.13;;;7.00;;
32152;SDS011;18656;50.580;11.392;2022-08-26T11:47:30;24.75;;;7.72;;
32152;SDS011;18656;50.580;11.392;2022-08-26T11:50:05;25.45;;;7.90;;
32152;SDS011;18656;50.580;11.392;2022-08-26T11:52:32;18.85;;;6.95;;
32152;SDS011;18656;50.580;11.392;2022-08-26T11:55:00;20.52;;;9.18;;
32152;SDS011;18656;50.580;11.392;2022-08-26T11:57:29;26.23;;;7.85;;
32152;SDS011;18656;50.580;11.392;2022-08-26T11:59:58;20.88;;;8.20;;
32152;SDS011;18656;50.580;11.392;2022-08-26T12:02:26;19.52;;;8.48;;
32152;SDS011;18656;50.580;11.392;2022-08-26T12:04:54;16.77;;;7.50;;
32152;SDS011;18656;50.580;11.392;2022-08-26T12:07:23;17.38;;;7.30;;
32152;SDS011;18656;50.580;11.392;2022-08-26T12:09:55;15.35;;;6.70;;
32152;SDS011;18656;50.580;11.392;2022-08-26T12:12:28;18.90;;;6.55;;
32152;SDS011;18656;50.580;11.392;2022-08-26T12:15:18;24.48;;;6.82;;
32152;SDS011;18656;50.580;11.392;2022-08-26T12:17:50;26.83;;;7.05;;
32152;SDS011;18656;50.580;11.392;2022-08-26T12:20:36;37.67;;;8.57;;
32152;SDS011;18656;50.580;11.392;2022-08-26T12:23:29;23.00;;;7.07;;
32152;SDS011;18656;50.580;11.392;2022-08-26T12:26:06;16.27;;;6.63;;
32152;SDS011;18656;50.580;11.392;2022-08-26T12:28:46;14.82;;;6.13;;
32152;SDS011;18656;50.580;11.392;2022-08-26T12:31:21;17.05;;;6.30;;
32152;SDS011;18656;50.580;11.392;2022-08-26T12:33:50;17.27;;;6.22;;
32152;SDS011;18656;50.580;11.392;2022-08-26T12:36:23;18.42;;;6.05;;
32152;SDS011;18656;50.580;11.392;2022-08-26T12:38:53;19.10;;;5.95;;
32152;SDS011;18656;50.580;11.392;2022-08-26T12:41:37;21.30;;;6.57;;
32152;SDS011;18656;50.580;11.392;2022-08-26T12:44:04;24.50;;;6.72;;
32152;SDS011;18656;50.580;11.392;2022-08-26T12:46:32;18.85;;;6.22;;
32152;SDS011;18656;50.580;11.392;2022-08-26T12:49:01;22.13;;;7.15;;
32152;SDS011;18656;50.580;11.392;2022-08-26T12:51:31;25.63;;;7.13;;
32152;SDS011;18656;50.580;11.392;2022-08-26T12:53:59;25.25;;;7.32;;
32152;SDS011;18656;50.580;11.392;2022-08-26T12:56:36;18.83;;;7.10;;
32152;SDS011;18656;50.580;11.392;2022-08-26T12:59:09;19.52;;;6.25;;
32152;SDS011;18656;50.580;11.392;2022-08-26T13:01:45;19.50;;;7.18;;
32152;SDS011;18656;50.580;11.392;2022-08-26T13:04:31;20.23;;;6.78;;
32152;SDS011;18656;50.580;11.392;2022-08-26T13:09:45;27.88;;;7.57;;
32152;SDS011;18656;50.580;11.392;2022-08-26T13:12:22;19.73;;;6.97;;
32152;SDS011;18656;50.580;11.392;2022-08-26T13:14:49;17.65;;;7.10;;
32152;SDS011;18656;50.580;11.392;2022-08-26T13:17:16;18.80;;;6.35;;
32152;SDS011;18656;50.580;11.392;2022-08-26T13:19:44;22.90;;;6.57;;
32152;SDS011;18656;50.580;11.392;2022-08-26T13:22:11;21.38;;;6.15;;
32152;SDS011;18656;50.580;11.392;2022-08-26T13:24:40;22.95;;;6.50;;
32152;SDS011;18656;50.580;11.392;2022-08-26T13:27:08;15.35;;;6.30;;
32152;SDS011;18656;50.580;11.392;2022-08-26T13:29:36;25.30;;;6.45;;
32152;SDS011;18656;50.580;11.392;2022-08-26T13:32:04;25.25;;;7.13;;
32152;SDS011;18656;50.580;11.392;2022-08-26T13:34:31;20.30;;;6.10;;
32152;SDS011;18656;50.580;11.392;2022-08-26T13:36:59;28.15;;;6.50;;
32152;SDS011;18656;50.580;11.392;2022-08-26T13:39:26;20.25;;;6.68;;
32152;SDS011;18656;50.580;11.392;2022-08-26T13:41:53;19.13;;;6.57;;
32152;SDS011;18656;50.580;11.392;2022-08-26T13:44:20;20.73;;;6.45;;
32152;SDS011;18656;50.580;11.392;2022-08-26T13:46:47;18.58;;;6.65;;
32152;SDS011;18656;50.580;11.392;2022-08-26T13:49:15;19.95;;;6.20;;
32152;SDS011;18656;50.580;11.392;2022-08-26T13:51:42;22.27;;;6.38;;
32152;SDS011;18656;50.580;11.392;2022-08-26T13:54:09;21.42;;;6.32;;
32152;SDS011;18656;50.580;11.392;2022-08-26T13:56:36;17.67;;;5.50;;
32152;SDS011;18656;50.580;11.392;2022-08-26T13:59:04;24.67;;;7.18;;
32152;SDS011;18656;50.580;11.392;2022-08-26T14:01:32;16.35;;;5.80;;
32152;SDS011;18656;50.580;11.392;2022-08-26T14:03:59;17.65;;;5.57;;
32152;SDS011;18656;50.580;11.392;2022-08-26T14:06:28;17.58;;;6.10;;
32152;SDS011;18656;50.580;11.392;2022-08-26T14:08:55;19.30;;;5.72;;
32152;SDS011;18656;50.580;11.392;2022-08-26T14:11:22;24.30;;;6.07;;
32152;SDS011;18656;50.580;11.392;2022-08-26T14:13:50;15.50;;;5.55;;
32152;SDS011;18656;50.580;11.392;2022-08-26T14:16:24;21.83;;;5.68;;
32152;SDS011;18656;50.580;11.392;2022-08-26T14:18:53;21.33;;;5.65;;
32152;SDS011;18656;50.580;11.392;2022-08-26T14:21:20;20.98;;;6.07;;
32152;SDS011;18656;50.580;11.392;2022-08-26T14:23:47;14.68;;;4.72;;
32152;SDS011;18656;50.580;11.392;2022-08-26T14:26:15;17.05;;;5.88;;
32152;SDS011;18656;50.580;11.392;2022-08-26T14:28:54;21.25;;;5.60;;
32152;SDS011;18656;50.580;11.392;2022-08-26T14:31:21;15.13;;;5.07;;
32152;SDS011;18656;50.580;11.392;2022-08-26T14:33:49;15.40;;;5.82;;
32152;SDS011;18656;50.580;11.392;2022-08-26T14:36:17;18.73;;;5.55;;
32152;SDS011;18656;50.580;11.392;2022-08-26T14:38:53;16.88;;;5.57;;
32152;SDS011;18656;50.580;11.392;2022-08-26T14:41:21;16.95;;;5.60;;
32152;SDS011;18656;50.580;11.392;2022-08-26T14:44:11;20.85;;;5.43;;
32152;SDS011;18656;50.580;11.392;2022-08-26T14:46:47;14.80;;;4.88;;
32152;SDS011;18656;50.580;11.392;2022-08-26T14:49:15;14.13;;;5.40;;
32152;SDS011;18656;50.580;11.392;2022-08-26T14:51:44;14.27;;;5.70;;
32152;SDS011;18656;50.580;11.392;2022-08-26T14:54:12;16.98;;;5.95;;
32152;SDS011;18656;50.580;11.392;2022-08-26T14:56:46;16.42;;;5.65;;
32152;SDS011;18656;50.580;11.392;2022-08-26T14:59:15;15.43;;;5.25;;
32152;SDS011;18656;50.580;11.392;2022-08-26T15:01:43;14.65;;;5.70;;
32152;SDS011;18656;50.580;11.392;2022-08-26T15:04:11;18.13;;;5.97;;
32152;SDS011;18656;50.580;11.392;2022-08-26T15:06:38;51.15;;;5.53;;
32152;SDS011;18656;50.580;11.392;2022-08-26T15:09:06;73.25;;;6.93;;
32152;SDS011;18656;50.580;11.392;2022-08-26T15:11:33;28.15;;;3.88;;
32152;SDS011;18656;50.580;11.392;2022-08-26T15:14:00;16.45;;;3.22;;
32152;SDS011;18656;50.580;11.392;2022-08-26T15:16:28;13.75;;;3.53;;
32152;SDS011;18656;50.580;11.392;2022-08-26T15:18:58;10.30;;;3.90;;